Time;durP1;ratioP1;P1;durP2;ratioP2;P2;SDS_P1;SDS_P2;PMS_P1;PMS_P2;Temp;Humidity;BMP_temperature;BMP_pressure;BME280_temperature;BME280_humidity;BME280_pressure;Samples;Min_cycle;Max_cycle;Signal;HPM_P1;HPM_P2
2021/12/25 00:02:08;;;;;;;;;;;8.60;93.60;;;;;;5007985;28;21357;-60
2021/12/25 00:04:34;;;;;;;;;;;8.70;93.70;;;;;;5008584;28;19920;-60
2021/12/25 00:06:59;;;;;;;;;;;8.70;93.70;;;;;;5010492;28;19912;-61
2021/12/25 00:09:25;;;;;;;;;;;8.70;93.70;;;;;;5009814;28;19913;-61
2021/12/25 00:11:50;;;;;;;;;;;8.60;93.70;;;;;;4991457;28;19991;-61
2021/12/25 00:14:16;;;;;;;;;;;8.60;93.70;;;;;;5009858;28;20265;-61
2021/12/25 00:16:41;;;;;;;;;;;8.60;93.70;;;;;;5009747;28;19909;-61
2021/12/25 00:19:07;;;;;;;;;;;8.60;93.80;;;;;;5008405;28;19913;-60
2021/12/25 00:21:33;;;;;;;;;;;8.60;93.70;;;;;;5023574;28;19916;-61
2021/12/25 00:23:58;;;;;;;;;;;8.60;93.70;;;;;;5008601;28;19928;-61
2021/12/25 00:26:41;;;;;;;;;;;8.40;93.70;;;;;;5024193;28;19913;-60
2021/12/25 00:29:33;;;;;;;;;;;8.60;93.70;;;;;;5025745;28;19917;-61
2021/12/25 00:32:44;;;;;;;;;;;8.60;93.70;;;;;;5011295;28;20387;-61
2021/12/25 00:34:41;;;;;;;;;;;8.60;93.70;;;;;;5009394;28;20050;-61
2021/12/25 00:37:06;;;;;;;;;;;8.60;93.60;;;;;;4991593;28;19971;-61
2021/12/25 00:39:32;;;;;;;;;;;8.60;93.60;;;;;;4992636;28;19913;-61
2021/12/25 00:41:57;;;;;;;;;;;8.70;93.60;;;;;;5007399;28;19909;-61
2021/12/25 00:44:23;;;;;;;;;;;8.60;93.60;;;;;;5007905;28;19917;-61
2021/12/25 00:46:48;;;;;;;;;;;8.60;93.60;;;;;;5008555;28;19909;-61
2021/12/25 00:49:14;;;;;;;;;;;8.60;93.60;;;;;;5025156;28;19937;-61
2021/12/25 00:51:39;;;;;;;;;;;8.60;93.60;;;;;;5024846;28;20320;-61
2021/12/25 00:54:05;;;;;;;;;;;8.60;93.60;;;;;;5008122;28;19913;-61
2021/12/25 00:56:30;;;;;;;;;;;8.60;93.60;;;;;;5009864;28;19917;-61
2021/12/25 00:58:56;;;;;;;;;;;8.60;93.50;;;;;;5024839;28;19909;-61
2021/12/25 01:01:21;;;;;;;;;;;8.60;93.50;;;;;;5024170;28;20010;-61
2021/12/25 01:03:48;;;;;;;;;;;8.60;93.50;;;;;;4992113;28;19910;-61
2021/12/25 01:06:14;;;;;;;;;;;8.60;93.60;;;;;;5008021;28;19919;-60
2021/12/25 01:08:39;;;;;;;;;;;8.60;93.60;;;;;;5008304;28;19917;-61
2021/12/25 01:11:05;;;;;;;;;;;8.60;93.50;;;;;;5007266;28;19936;-61
2021/12/25 01:13:35;;;;;;;;;;;8.60;93.50;;;;;;5009994;28;19917;-61
2021/12/25 01:34:49;;;;;;;;;;;8.60;93.70;;;;;;5025604;28;19924;-61
2021/12/25 01:50:13;;;;;;;;;;;8.60;93.70;;;;;;5022588;28;19956;-60
2021/12/25 01:52:39;;;;;;;;;;;8.50;93.70;;;;;;5024283;28;20531;-61
2021/12/25 01:55:06;;;;;;;;;;;8.60;93.80;;;;;;5022378;28;19917;-61
2021/12/25 01:57:32;;;;;;;;;;;8.60;93.70;;;;;;4990188;28;19909;-61
2021/12/25 01:59:57;;;;;;;;;;;8.60;93.80;;;;;;4991376;28;19939;-61
2021/12/25 02:02:23;;;;;;;;;;;8.50;93.70;;;;;;5004278;28;19921;-61
2021/12/25 02:04:48;;;;;;;;;;;8.60;93.80;;;;;;5006584;28;19921;-61
2021/12/25 02:07:14;;;;;;;;;;;8.60;93.80;;;;;;5007383;28;20013;-61
2021/12/25 02:09:39;;;;;;;;;;;8.60;93.80;;;;;;4991069;28;19988;-61
2021/12/25 02:12:05;;;;;;;;;;;8.60;93.80;;;;;;4990879;28;19909;-61
2021/12/25 02:14:31;;;;;;;;;;;8.60;93.80;;;;;;4989475;28;19921;-61
2021/12/25 02:17:12;;;;;;;;;;;8.60;93.80;;;;;;4991268;28;20000;-61
2021/12/25 02:19:45;;;;;;;;;;;8.60;93.80;;;;;;5007411;28;20000;-61
2021/12/25 02:22:11;;;;;;;;;;;8.60;93.80;;;;;;5007482;28;19932;-61
2021/12/25 02:24:37;;;;;;;;;;;8.50;93.80;;;;;;5005056;28;20365;-61
2021/12/25 02:27:03;;;;;;;;;;;8.50;93.80;;;;;;5023087;28;19919;-61
2021/12/25 02:29:28;;;;;;;;;;;8.50;93.80;;;;;;5021175;28;19917;-61
2021/12/25 02:31:54;;;;;;;;;;;8.50;93.80;;;;;;5019965;28;19920;-61
2021/12/25 02:34:19;;;;;;;;;;;8.50;93.80;;;;;;5007406;28;19921;-63
2021/12/25 02:36:45;;;;;;;;;;;8.50;93.80;;;;;;5007298;28;20364;-61
2021/12/25 02:39:10;;;;;;;;;;;8.50;93.80;;;;;;5023492;28;19913;-61
2021/12/25 02:41:36;;;;;;;;;;;8.50;93.80;;;;;;5022872;28;20031;-61
2021/12/25 02:44:01;;;;;;;;;;;8.50;93.90;;;;;;5004537;28;19913;-60
2021/12/25 02:46:27;;;;;;;;;;;8.50;93.90;;;;;;5004374;28;19931;-64
2021/12/25 02:48:57;;;;;;;;;;;8.50;93.90;;;;;;5007756;28;20656;-61
2021/12/25 02:51:23;;;;;;;;;;;8.50;93.90;;;;;;4990055;28;19920;-60
2021/12/25 02:53:48;;;;;;;;;;;8.50;93.90;;;;;;5021721;28;19917;-60
2021/12/25 02:56:13;;;;;;;;;;;8.50;93.90;;;;;;5005672;28;19917;-61
2021/12/25 02:58:39;;;;;;;;;;;8.50;93.90;;;;;;5005265;28;19916;-61
2021/12/25 03:01:06;;;;;;;;;;;8.50;93.90;;;;;;4986759;28;19925;-61
2021/12/25 03:03:32;;;;;;;;;;;8.50;93.90;;;;;;5006570;28;19913;-60
2021/12/25 03:05:57;;;;;;;;;;;8.50;94.00;;;;;;4989407;28;20360;-61
2021/12/25 03:08:22;;;;;;;;;;;8.40;93.90;;;;;;4988789;28;19914;-60
2021/12/25 03:10:48;;;;;;;;;;;8.50;94.00;;;;;;5006206;28;19924;-61
2021/12/25 03:15:46;;;;;;;;;;;8.40;94.00;;;;;;5005439;28;19913;-61
2021/12/25 03:18:12;;;;;;;;;;;8.40;93.90;;;;;;4991548;28;20016;-61
2021/12/25 03:20:40;;;;;;;;;;;8.40;93.90;;;;;;5003223;28;19909;-61
2021/12/25 03:23:06;;;;;;;;;;;8.40;93.90;;;;;;5006271;28;19936;-61
2021/12/25 03:25:31;;;;;;;;;;;8.40;93.90;;;;;;5006866;28;19909;-61
2021/12/25 03:27:57;;;;;;;;;;;8.40;94.00;;;;;;5005445;28;19917;-61
2021/12/25 03:30:24;;;;;;;;;;;8.40;94.00;;;;;;5021702;28;20391;-61
2021/12/25 03:32:50;;;;;;;;;;;8.40;94.00;;;;;;5004745;28;19913;-61
2021/12/25 03:35:15;;;;;;;;;;;8.40;94.00;;;;;;5005923;28;19928;-61
2021/12/25 03:37:40;;;;;;;;;;;8.40;94.00;;;;;;5005984;28;19918;-61
2021/12/25 03:40:06;;;;;;;;;;;8.40;93.90;;;;;;4988339;28;19913;-61
2021/12/25 03:42:32;;;;;;;;;;;8.40;93.90;;;;;;5005963;28;19920;-60
2021/12/25 03:44:57;;;;;;;;;;;8.40;93.90;;;;;;4988361;28;19916;-60
2021/12/25 03:47:32;;;;;;;;;;;8.40;93.90;;;;;;5006538;28;19999;-60
2021/12/25 03:58:15;;;;;;;;;;;8.30;93.90;;;;;;5020275;28;19924;-60
2021/12/25 04:00:43;;;;;;;;;;;8.30;93.90;;;;;;5020807;28;20292;-61
2021/12/25 04:03:16;;;;;;;;;;;8.30;93.90;;;;;;5006504;28;20016;-60
2021/12/25 04:05:44;;;;;;;;;;;8.30;93.80;;;;;;5021254;28;19967;-61
2021/12/25 04:08:12;;;;;;;;;;;8.30;93.80;;;;;;5005652;28;19909;-61
2021/12/25 04:10:39;;;;;;;;;;;8.40;93.90;;;;;;5005775;28;19952;-60
2021/12/25 04:13:06;;;;;;;;;;;8.30;93.90;;;;;;4987986;28;19987;-61
2021/12/25 04:15:31;;;;;;;;;;;8.30;93.80;;;;;;4988856;28;19917;-61
2021/12/25 04:17:57;;;;;;;;;;;8.30;93.90;;;;;;5022496;28;19920;-61
2021/12/25 04:20:22;;;;;;;;;;;8.30;93.90;;;;;;5008058;28;19913;-60
2021/12/25 04:22:56;;;;;;;;;;;8.30;93.90;;;;;;5007670;28;19913;-61
2021/12/25 04:25:27;;;;;;;;;;;8.30;93.90;;;;;;4993656;28;19996;-61
2021/12/25 04:27:52;;;;;;;;;;;8.30;93.90;;;;;;5007875;28;20270;-61
2021/12/25 04:31:01;;;;;;;;;;;8.30;93.90;;;;;;5007734;28;19919;-61
2021/12/25 04:49:45;;;;;;;;;;;8.30;93.90;;;;;;5024451;28;19916;-61
2021/12/25 05:05:28;;;;;;;;;;;8.20;93.90;;;;;;5009193;28;19933;-60
2021/12/25 05:07:54;;;;;;;;;;;8.20;94.00;;;;;;5024870;28;20233;-61
2021/12/25 05:10:19;;;;;;;;;;;8.20;94.00;;;;;;5007090;28;19914;-61
2021/12/25 05:12:45;;;;;;;;;;;8.20;94.00;;;;;;5005808;28;20007;-61
2021/12/25 05:15:10;;;;;;;;;;;8.20;94.00;;;;;;5006026;28;19931;-61
2021/12/25 05:17:36;;;;;;;;;;;8.20;94.00;;;;;;5024958;28;20430;-61
2021/12/25 05:20:02;;;;;;;;;;;8.20;94.00;;;;;;4991617;28;19917;-61
2021/12/25 05:22:28;;;;;;;;;;;8.20;94.00;;;;;;5007460;28;19920;-61
2021/12/25 05:24:53;;;;;;;;;;;8.10;94.00;;;;;;5008451;28;20366;-61
2021/12/25 05:27:19;;;;;;;;;;;8.20;94.00;;;;;;5006703;28;19913;-61
2021/12/25 05:29:46;;;;;;;;;;;8.10;94.00;;;;;;5023031;28;19913;-61
2021/12/25 05:32:16;;;;;;;;;;;8.10;94.00;;;;;;4990966;28;19913;-61
2021/12/25 05:34:41;;;;;;;;;;;8.10;94.00;;;;;;5005573;28;19913;-61
2021/12/25 05:37:07;;;;;;;;;;;8.10;94.00;;;;;;4990312;28;19928;-61
2021/12/25 05:39:32;;;;;;;;;;;8.10;94.10;;;;;;4991069;28;20360;-61
2021/12/25 05:41:58;;;;;;;;;;;8.10;94.10;;;;;;5006423;28;20595;-62
2021/12/25 05:44:24;;;;;;;;;;;8.10;94.00;;;;;;5022600;28;19913;-60
2021/12/25 05:46:49;;;;;;;;;;;8.10;94.10;;;;;;5022502;28;21003;-61
2021/12/25 05:49:15;;;;;;;;;;;8.10;94.00;;;;;;5022033;28;20388;-60
2021/12/25 05:51:41;;;;;;;;;;;8.10;94.10;;;;;;5006455;28;19919;-61
2021/12/25 05:54:06;;;;;;;;;;;8.10;94.10;;;;;;5007316;28;19913;-61
2021/12/25 05:56:32;;;;;;;;;;;8.10;94.10;;;;;;5020744;28;19920;-60
2021/12/25 05:58:57;;;;;;;;;;;8.10;94.10;;;;;;5006091;28;19917;-61
2021/12/25 06:01:23;;;;;;;;;;;8.10;94.10;;;;;;5006272;28;19921;-61
2021/12/25 06:03:48;;;;;;;;;;;8.10;94.10;;;;;;5008585;28;19983;-61
2021/12/25 06:06:14;;;;;;;;;;;8.10;94.10;;;;;;5005483;28;20454;-61
2021/12/25 06:08:39;;;;;;;;;;;8.00;94.10;;;;;;5025496;28;19956;-60
2021/12/25 06:11:05;;;;;;;;;;;8.00;94.10;;;;;;5006922;28;20356;-61
2021/12/25 06:13:31;;;;;;;;;;;8.00;94.10;;;;;;5004913;28;19920;-61
2021/12/25 06:15:56;;;;;;;;;;;8.00;94.10;;;;;;4989231;28;19922;-61
2021/12/25 06:18:22;;;;;;;;;;;8.00;94.20;;;;;;4991032;28;20020;-61
2021/12/25 06:20:47;;;;;;;;;;;8.00;94.20;;;;;;5003744;28;19986;-61
2021/12/25 06:23:13;;;;;;;;;;;8.00;94.20;;;;;;5024182;28;19909;-60
2021/12/25 06:25:38;;;;;;;;;;;8.00;94.20;;;;;;4992396;28;19917;-60
2021/12/25 06:28:04;;;;;;;;;;;8.00;94.20;;;;;;5005500;28;19914;-61
2021/12/25 06:30:29;;;;;;;;;;;8.00;94.20;;;;;;5001780;28;19921;-61
2021/12/25 06:32:55;;;;;;;;;;;8.00;94.30;;;;;;5006849;28;19913;-61
2021/12/25 06:35:20;;;;;;;;;;;8.00;94.30;;;;;;5003711;28;19953;-61
2021/12/25 06:37:46;;;;;;;;;;;8.00;94.30;;;;;;4991720;28;19924;-61
2021/12/25 06:40:19;;;;;;;;;;;8.00;94.20;;;;;;5005560;28;19916;-61
2021/12/25 06:42:45;;;;;;;;;;;8.00;94.20;;;;;;5021104;28;20154;-60
2021/12/25 06:45:10;;;;;;;;;;;8.00;94.20;;;;;;5004946;28;19917;-61
2021/12/25 06:47:35;;;;;;;;;;;8.00;94.20;;;;;;5007833;28;19940;-61
2021/12/25 06:50:01;;;;;;;;;;;8.00;94.20;;;;;;4988991;28;19921;-61
2021/12/25 06:52:26;;;;;;;;;;;8.00;94.20;;;;;;5004584;28;20008;-61
2021/12/25 06:54:52;;;;;;;;;;;8.00;94.40;;;;;;5002810;28;19926;-60
2021/12/25 06:57:18;;;;;;;;;;;8.00;94.20;;;;;;5005706;28;20419;-61
2021/12/25 06:59:43;;;;;;;;;;;8.00;94.20;;;;;;5004555;28;19917;-60
2021/12/25 07:02:09;;;;;;;;;;;7.90;94.10;;;;;;5021981;28;19992;-61
2021/12/25 07:04:35;;;;;;;;;;;8.10;94.20;;;;;;5004890;28;20008;-61
2021/12/25 07:07:00;;;;;;;;;;;8.00;94.20;;;;;;4990098;28;20359;-61
2021/12/25 07:09:26;;;;;;;;;;;8.00;94.20;;;;;;5005794;28;19917;-61
2021/12/25 07:11:51;;;;;;;;;;;8.00;94.20;;;;;;5006707;28;19913;-61
2021/12/25 07:14:17;;;;;;;;;;;8.00;94.40;;;;;;5020275;28;20622;-61
2021/12/25 07:16:42;;;;;;;;;;;8.00;94.10;;;;;;4990014;28;19940;-61
2021/12/25 07:19:10;;;;;;;;;;;8.00;94.10;;;;;;5005005;28;19909;-61
2021/12/25 07:21:35;;;;;;;;;;;8.00;94.10;;;;;;5024270;28;19916;-60
2021/12/25 07:24:03;;;;;;;;;;;8.00;94.20;;;;;;5022062;28;20258;-61
2021/12/25 07:26:29;;;;;;;;;;;8.00;94.10;;;;;;5022588;28;20060;-61
2021/12/25 07:28:54;;;;;;;;;;;8.00;94.10;;;;;;5020332;28;20417;-61
2021/12/25 07:31:21;;;;;;;;;;;8.00;94.10;;;;;;4987823;28;19924;-61
2021/12/25 07:33:46;;;;;;;;;;;8.00;94.10;;;;;;4988754;28;20020;-61
2021/12/25 07:36:12;;;;;;;;;;;8.00;94.10;;;;;;5005686;28;20044;-61
2021/12/25 07:38:37;;;;;;;;;;;8.00;94.10;;;;;;5022381;28;19917;-61
2021/12/25 07:41:03;;;;;;;;;;;8.00;94.10;;;;;;4987459;28;19916;-61
2021/12/25 07:43:28;;;;;;;;;;;8.00;94.10;;;;;;4988688;28;20365;-61
2021/12/25 07:45:54;;;;;;;;;;;8.00;94.00;;;;;;5021741;28;20233;-61
2021/12/25 07:48:20;;;;;;;;;;;8.00;94.00;;;;;;5005571;28;19917;-60
2021/12/25 07:50:46;;;;;;;;;;;8.00;94.00;;;;;;4988827;28;19915;-61
2021/12/25 07:53:12;;;;;;;;;;;8.00;94.00;;;;;;4989519;28;20312;-61
2021/12/25 07:55:37;;;;;;;;;;;8.00;94.00;;;;;;5025576;28;19921;-61
2021/12/25 07:58:03;;;;;;;;;;;8.00;94.00;;;;;;5008254;28;19944;-61
2021/12/25 08:00:28;;;;;;;;;;;8.10;94.00;;;;;;5025999;28;19940;-61
2021/12/25 08:02:54;;;;;;;;;;;8.10;94.00;;;;;;4993697;28;19920;-61
2021/12/25 08:05:20;;;;;;;;;;;8.10;94.10;;;;;;5023692;28;19920;-61
2021/12/25 08:07:45;;;;;;;;;;;8.00;94.10;;;;;;5024686;28;19957;-61
2021/12/25 08:10:14;;;;;;;;;;;8.10;94.10;;;;;;4992777;28;19960;-61
2021/12/25 08:12:50;;;;;;;;;;;8.10;94.20;;;;;;4993574;28;20018;-61
2021/12/25 08:15:16;;;;;;;;;;;8.10;94.20;;;;;;5021762;28;20406;-61
2021/12/25 08:17:42;;;;;;;;;;;8.10;94.20;;;;;;5028335;28;19908;-60
2021/12/25 08:20:07;;;;;;;;;;;8.10;94.20;;;;;;4991686;28;19913;-61
2021/12/25 08:22:33;;;;;;;;;;;8.10;94.20;;;;;;5010033;28;19924;-61
2021/12/25 08:24:59;;;;;;;;;;;8.10;94.20;;;;;;4992979;28;19949;-61
2021/12/25 08:27:24;;;;;;;;;;;8.10;94.30;;;;;;5007999;28;19967;-60
2021/12/25 08:29:49;;;;;;;;;;;8.10;94.40;;;;;;5007214;28;20551;-61
2021/12/25 08:32:15;;;;;;;;;;;8.10;94.40;;;;;;4993312;28;19909;-61
2021/12/25 08:34:42;;;;;;;;;;;8.10;94.40;;;;;;5024659;28;19979;-61
2021/12/25 08:37:07;;;;;;;;;;;8.10;94.50;;;;;;5025044;28;19919;-61
2021/12/25 08:39:33;;;;;;;;;;;8.10;94.50;;;;;;5003780;28;19913;-61
2021/12/25 08:42:04;;;;;;;;;;;8.10;94.50;;;;;;4991520;28;20451;-60
2021/12/25 08:44:35;;;;;;;;;;;8.10;94.60;;;;;;5022047;28;19917;-61
2021/12/25 08:47:04;;;;;;;;;;;8.10;94.60;;;;;;5009402;28;20407;-61
2021/12/25 08:49:30;;;;;;;;;;;8.10;94.70;;;;;;5007970;28;20420;-60
2021/12/25 08:51:56;;;;;;;;;;;8.10;94.70;;;;;;5021685;28;20027;-61
2021/12/25 08:54:21;;;;;;;;;;;8.10;94.70;;;;;;5025606;28;19913;-61
2021/12/25 08:56:47;;;;;;;;;;;8.10;94.80;;;;;;5023832;28;19924;-61
2021/12/25 08:59:12;;;;;;;;;;;8.10;94.80;;;;;;5009039;28;19909;-61
2021/12/25 09:01:38;;;;;;;;;;;8.10;94.90;;;;;;5023065;28;19921;-60
2021/12/25 09:04:03;;;;;;;;;;;8.10;94.90;;;;;;5008596;28;19917;-61
2021/12/25 09:06:31;;;;;;;;;;;8.00;95.00;;;;;;5007234;28;21438;-61
2021/12/25 09:08:56;;;;;;;;;;;8.10;95.10;;;;;;5008080;28;19913;-61
2021/12/25 09:11:22;;;;;;;;;;;8.10;95.10;;;;;;4992138;28;20010;-61
2021/12/25 09:13:48;;;;;;;;;;;8.10;95.10;;;;;;5023007;28;19913;-62
2021/12/25 09:16:13;;;;;;;;;;;8.10;95.10;;;;;;5008818;28;19917;-61
2021/12/25 09:18:39;;;;;;;;;;;8.10;95.10;;;;;;5007502;28;19979;-61
2021/12/25 09:21:04;;;;;;;;;;;8.10;95.10;;;;;;5024214;28;19923;-61
2021/12/25 09:23:29;;;;;;;;;;;8.10;95.10;;;;;;5007566;28;19934;-61
2021/12/25 09:25:55;;;;;;;;;;;8.20;95.20;;;;;;5006009;28;19913;-61
2021/12/25 09:28:21;;;;;;;;;;;8.20;95.10;;;;;;5008209;28;19920;-62
2021/12/25 09:30:46;;;;;;;;;;;8.20;95.20;;;;;;5007658;28;19913;-61
2021/12/25 09:33:11;;;;;;;;;;;8.20;95.30;;;;;;5008016;28;20435;-60
2021/12/25 09:35:37;;;;;;;;;;;8.20;95.40;;;;;;5023784;28;19917;-61
2021/12/25 09:38:03;;;;;;;;;;;8.20;95.40;;;;;;5007129;28;19921;-60
2021/12/25 09:40:28;;;;;;;;;;;8.20;95.40;;;;;;5022379;28;19924;-61
2021/12/25 09:42:55;;;;;;;;;;;8.20;95.40;;;;;;5006172;28;19928;-60
2021/12/25 09:45:20;;;;;;;;;;;8.20;95.40;;;;;;4991343;28;20004;-61
2021/12/25 09:47:46;;;;;;;;;;;8.20;95.50;;;;;;5007592;28;20048;-61
2021/12/25 09:50:11;;;;;;;;;;;8.20;95.50;;;;;;4990564;28;20408;-61
2021/12/25 09:52:38;;;;;;;;;;;8.20;95.50;;;;;;5007050;28;20006;-61
2021/12/25 09:55:03;;;;;;;;;;;8.20;95.50;;;;;;5024325;28;19913;-61
2021/12/25 09:57:29;;;;;;;;;;;8.30;95.60;;;;;;4991804;28;19940;-61
2021/12/25 09:59:54;;;;;;;;;;;8.30;95.60;;;;;;5006466;28;19923;-61
2021/12/25 10:02:20;;;;;;;;;;;8.30;95.60;;;;;;5006558;28;19921;-61
2021/12/25 10:04:55;;;;;;;;;;;8.30;95.70;;;;;;5006779;28;19953;-61
2021/12/25 10:07:25;;;;;;;;;;;8.30;95.60;;;;;;5005631;28;19917;-61
2021/12/25 10:09:54;;;;;;;;;;;8.30;95.60;;;;;;5021998;28;19917;-61
2021/12/25 10:12:20;;;;;;;;;;;8.30;95.60;;;;;;5007105;28;20039;-61
2021/12/25 10:14:50;;;;;;;;;;;8.30;95.70;;;;;;5004804;28;20337;-61
2021/12/25 10:17:16;;;;;;;;;;;8.30;95.70;;;;;;5006712;28;20011;-61
2021/12/25 10:19:42;;;;;;;;;;;8.40;95.70;;;;;;4990548;28;19929;-61
2021/12/25 10:22:08;;;;;;;;;;;8.30;95.90;;;;;;5006008;28;19909;-61
2021/12/25 10:24:41;;;;;;;;;;;8.30;95.90;;;;;;5005495;28;19920;-61
2021/12/25 10:27:08;;;;;;;;;;;8.40;96.00;;;;;;5007445;28;19966;-61
2021/12/25 10:29:33;;;;;;;;;;;8.40;96.30;;;;;;5006336;28;19909;-61
2021/12/25 10:31:59;;;;;;;;;;;8.40;96.20;;;;;;5006062;28;20375;-61
2021/12/25 10:34:26;;;;;;;;;;;8.40;96.20;;;;;;4990566;28;19992;-61
2021/12/25 10:36:52;;;;;;;;;;;8.40;96.10;;;;;;5022295;28;19916;-61
2021/12/25 10:39:18;;;;;;;;;;;8.40;96.20;;;;;;5005061;28;19914;-60
2021/12/25 10:41:58;;;;;;;;;;;8.40;96.40;;;;;;5022452;28;19920;-61
2021/12/25 10:44:24;;;;;;;;;;;8.50;96.70;;;;;;5023784;28;19917;-61
2021/12/25 10:47:00;;;;;;;;;;;8.50;96.50;;;;;;5003497;28;20320;-61
2021/12/25 10:49:27;;;;;;;;;;;8.50;96.50;;;;;;5020496;28;19925;-61
2021/12/25 10:51:53;;;;;;;;;;;8.40;96.60;;;;;;5003786;28;20261;-61
2021/12/25 10:54:19;;;;;;;;;;;8.50;96.70;;;;;;4989946;28;19974;-61
2021/12/25 10:56:47;;;;;;;;;;;8.50;96.80;;;;;;5015482;28;20060;-61
2021/12/25 10:59:14;;;;;;;;;;;8.50;96.80;;;;;;5026272;28;20003;-60
2021/12/25 11:01:45;;;;;;;;;;;8.50;96.80;;;;;;5022203;28;20441;-61
2021/12/25 11:04:26;;;;;;;;;;;8.50;97.10;;;;;;5020107;28;19932;-61
2021/12/25 11:06:52;;;;;;;;;;;8.50;96.80;;;;;;5023753;28;20008;-61
2021/12/25 11:09:17;;;;;;;;;;;8.50;96.80;;;;;;5021237;28;19913;-61
2021/12/25 11:11:43;;;;;;;;;;;8.50;96.80;;;;;;5018374;28;20016;-61
2021/12/25 11:14:08;;;;;;;;;;;8.50;96.80;;;;;;5017137;28;19921;-61
2021/12/25 11:16:37;;;;;;;;;;;8.50;96.80;;;;;;5004004;28;19943;-61
2021/12/25 11:19:16;;;;;;;;;;;8.60;96.90;;;;;;4994701;28;19983;-61
2021/12/25 11:21:44;;;;;;;;;;;8.50;96.80;;;;;;4999232;28;19913;-63
2021/12/25 11:24:15;;;;;;;;;;;8.60;96.90;;;;;;5012072;28;20291;-61
2021/12/25 11:26:41;;;;;;;;;;;8.60;96.90;;;;;;5021134;28;19919;-61
2021/12/25 11:29:07;;;;;;;;;;;8.60;97.00;;;;;;5002040;28;19914;-61
2021/12/25 11:31:33;;;;;;;;;;;8.60;97.00;;;;;;5006664;28;19921;-61
2021/12/25 11:33:58;;;;;;;;;;;8.60;97.00;;;;;;5021574;28;19917;-61
2021/12/25 11:36:24;;;;;;;;;;;8.60;97.00;;;;;;5019041;28;19914;-62
2021/12/25 11:38:50;;;;;;;;;;;8.60;97.30;;;;;;4990957;28;19918;-61
2021/12/25 11:41:15;;;;;;;;;;;8.60;97.00;;;;;;4993253;28;19933;-61
2021/12/25 11:43:42;;;;;;;;;;;8.60;97.00;;;;;;5010537;28;19913;-61
2021/12/25 11:46:08;;;;;;;;;;;8.70;97.00;;;;;;5021754;28;20421;-61
2021/12/25 11:48:34;;;;;;;;;;;8.70;97.20;;;;;;5002993;28;19979;-61
2021/12/25 11:51:00;;;;;;;;;;;8.60;97.10;;;;;;5021985;28;20285;-61
2021/12/25 11:58:39;;;;;;;;;;;8.70;97.10;;;;;;5004847;28;20281;-61
2021/12/25 12:01:15;;;;;;;;;;;8.70;97.30;;;;;;5022305;28;19928;-61
2021/12/25 12:03:44;;;;;;;;;;;8.70;97.20;;;;;;5003609;28;20404;-61
2021/12/25 12:06:09;;;;;;;;;;;8.70;96.90;;;;;;5026141;28;19919;-61
2021/12/25 12:08:53;;;;;;;;;;;8.70;96.80;;;;;;5000661;28;19921;-61
2021/12/25 12:11:25;;;;;;;;;;;8.70;96.70;;;;;;5021884;28;20246;-61
2021/12/25 12:14:09;;;;;;;;;;;8.70;96.70;;;;;;5004171;28;19964;-61
2021/12/25 12:16:39;;;;;;;;;;;8.70;96.90;;;;;;5023378;28;19957;-60
2021/12/25 12:19:04;;;;;;;;;;;8.70;96.90;;;;;;5014586;28;20272;-61
2021/12/25 12:21:35;;;;;;;;;;;8.80;97.00;;;;;;5006704;28;19913;-61
2021/12/25 12:24:27;;;;;;;;;;;8.70;97.00;;;;;;5003530;28;19909;-61
2021/12/25 12:26:53;;;;;;;;;;;8.80;97.00;;;;;;5011178;28;20332;-61
2021/12/25 12:29:39;;;;;;;;;;;9.00;96.90;;;;;;5012609;28;19920;-62
2021/12/25 12:32:27;;;;;;;;;;;8.80;96.80;;;;;;5021224;28;19917;-61
2021/12/25 12:34:53;;;;;;;;;;;8.80;96.80;;;;;;5017400;28;19918;-60
2021/12/25 12:37:19;;;;;;;;;;;8.80;96.80;;;;;;5028137;28;19917;-61
2021/12/25 12:39:54;;;;;;;;;;;8.80;96.70;;;;;;5031954;28;19921;-60
2021/12/25 12:42:20;;;;;;;;;;;8.90;96.80;;;;;;5026756;28;19960;-61
2021/12/25 12:44:49;;;;;;;;;;;8.90;97.00;;;;;;5018002;28;19959;-61
2021/12/25 12:47:15;;;;;;;;;;;8.90;97.00;;;;;;5008212;28;20015;-61
2021/12/25 12:49:50;;;;;;;;;;;8.90;97.00;;;;;;5032470;28;20004;-61
2021/12/25 12:52:16;;;;;;;;;;;8.90;97.00;;;;;;5028329;28;19917;-61
2021/12/25 12:54:52;;;;;;;;;;;8.90;96.90;;;;;;5010494;28;20413;-61
2021/12/25 12:57:18;;;;;;;;;;;8.90;97.00;;;;;;5010485;28;20007;-61
2021/12/25 12:59:44;;;;;;;;;;;8.90;97.00;;;;;;5010546;28;20036;-61
2021/12/25 13:02:10;;;;;;;;;;;9.00;97.00;;;;;;5023608;28;19917;-62
2021/12/25 13:04:45;;;;;;;;;;;9.00;97.00;;;;;;5001717;28;20343;-61
2021/12/25 13:07:11;;;;;;;;;;;9.00;97.20;;;;;;5021235;28;19925;-61
2021/12/25 13:09:42;;;;;;;;;;;9.00;97.10;;;;;;5000603;28;20081;-61
2021/12/25 13:12:19;;;;;;;;;;;9.00;97.20;;;;;;5028749;28;20304;-61
2021/12/25 13:14:44;;;;;;;;;;;9.10;97.10;;;;;;5024703;28;19966;-61
2021/12/25 13:17:10;;;;;;;;;;;9.10;97.20;;;;;;5005099;28;19913;-60
2021/12/25 13:19:45;;;;;;;;;;;9.10;97.20;;;;;;5007205;28;20062;-61
2021/12/25 13:22:11;;;;;;;;;;;9.20;97.20;;;;;;5010567;28;19913;-61
2021/12/25 13:24:37;;;;;;;;;;;9.10;97.20;;;;;;5009305;28;20012;-61
2021/12/25 13:27:02;;;;;;;;;;;9.10;97.50;;;;;;5011101;28;19909;-61
2021/12/25 13:29:28;;;;;;;;;;;9.20;97.30;;;;;;5001105;28;20268;-61
2021/12/25 13:31:53;;;;;;;;;;;9.20;97.30;;;;;;5025725;28;19963;-60
2021/12/25 13:34:21;;;;;;;;;;;9.20;97.30;;;;;;5012228;28;19932;-61
2021/12/25 13:36:50;;;;;;;;;;;9.20;97.20;;;;;;5028952;28;19936;-61
2021/12/25 13:39:17;;;;;;;;;;;9.20;97.20;;;;;;5008714;28;19909;-61
2021/12/25 13:41:49;;;;;;;;;;;9.20;97.30;;;;;;5008053;28;20396;-61
2021/12/25 13:44:15;;;;;;;;;;;9.20;97.50;;;;;;5026805;28;19991;-61
2021/12/25 13:46:57;;;;;;;;;;;9.30;97.80;;;;;;5026528;28;19921;-61
2021/12/25 13:49:26;;;;;;;;;;;9.30;97.80;;;;;;5009424;28;19909;-61
2021/12/25 13:51:52;;;;;;;;;;;9.30;97.80;;;;;;5027242;28;20123;-61
2021/12/25 13:54:18;;;;;;;;;;;9.30;97.70;;;;;;5009780;28;20131;-60
2021/12/25 13:56:47;;;;;;;;;;;9.20;97.60;;;;;;5008833;28;19915;-61
2021/12/25 13:59:12;;;;;;;;;;;9.30;97.90;;;;;;5027104;28;20404;-61
2021/12/25 14:01:37;;;;;;;;;;;9.30;97.80;;;;;;5024024;28;19924;-61
2021/12/25 14:04:07;;;;;;;;;;;9.30;97.70;;;;;;5010613;28;19913;-61
2021/12/25 14:06:32;;;;;;;;;;;9.30;97.70;;;;;;5025379;28;19916;-61
2021/12/25 14:08:58;;;;;;;;;;;9.30;97.90;;;;;;5016376;28;19913;-62
2021/12/25 14:11:23;;;;;;;;;;;9.30;98.00;;;;;;5005301;28;19925;-61
2021/12/25 14:13:49;;;;;;;;;;;9.40;98.00;;;;;;5004521;28;19921;-61
2021/12/25 14:16:14;;;;;;;;;;;9.40;98.00;;;;;;5022466;28;19964;-62
2021/12/25 14:18:40;;;;;;;;;;;9.40;98.00;;;;;;4997292;28;19983;-61
2021/12/25 14:21:17;;;;;;;;;;;9.40;98.10;;;;;;5021988;28;19943;-62
2021/12/25 14:23:42;;;;;;;;;;;9.40;98.00;;;;;;5022626;28;19961;-62
2021/12/25 14:26:08;;;;;;;;;;;9.40;98.00;;;;;;5005180;28;19956;-61
2021/12/25 14:28:34;;;;;;;;;;;9.40;97.90;;;;;;5025101;28;19913;-61
2021/12/25 14:31:03;;;;;;;;;;;9.40;98.00;;;;;;5018459;28;19967;-60
2021/12/25 14:33:29;;;;;;;;;;;9.40;98.20;;;;;;5005958;28;19920;-62
2021/12/25 14:35:54;;;;;;;;;;;9.40;98.30;;;;;;5020039;28;19921;-61
2021/12/25 14:38:20;;;;;;;;;;;9.50;98.40;;;;;;5006059;28;19984;-61
2021/12/25 14:40:46;;;;;;;;;;;9.50;98.40;;;;;;5026737;28;19959;-60
2021/12/25 14:43:38;;;;;;;;;;;9.50;98.50;;;;;;4991390;28;19917;-61
2021/12/25 14:46:05;;;;;;;;;;;9.50;98.70;;;;;;5021311;28;20494;-61
2021/12/25 14:48:30;;;;;;;;;;;9.50;98.70;;;;;;5026310;28;19913;-61
2021/12/25 14:50:59;;;;;;;;;;;9.50;98.80;;;;;;5022109;28;19913;-62
2021/12/25 14:53:25;;;;;;;;;;;9.50;98.90;;;;;;5009782;28;19909;-60
2021/12/25 14:55:52;;;;;;;;;;;9.50;98.90;;;;;;5015829;28;19929;-62
2021/12/25 14:58:19;;;;;;;;;;;9.60;98.90;;;;;;5021804;28;19921;-60
2021/12/25 15:00:46;;;;;;;;;;;9.60;98.80;;;;;;5017028;28;20048;-60
2021/12/25 15:03:14;;;;;;;;;;;9.60;98.80;;;;;;5012723;28;20017;-61
2021/12/25 15:05:40;;;;;;;;;;;9.60;98.90;;;;;;5018349;28;19959;-60
2021/12/25 15:08:16;;;;;;;;;;;9.70;98.90;;;;;;5021253;28;19957;-60
2021/12/25 15:10:41;;;;;;;;;;;9.60;99.00;;;;;;5007423;28;19913;-60
2021/12/25 15:13:14;;;;;;;;;;;9.60;98.90;;;;;;5018564;28;19924;-61
2021/12/25 15:15:49;;;;;;;;;;;9.70;98.80;;;;;;5016342;28;20313;-61
2021/12/25 15:18:28;;;;;;;;;;;9.70;98.70;;;;;;5023374;28;19920;-60
2021/12/25 15:21:02;;;;;;;;;;;9.70;98.70;;;;;;5005312;28;19913;-60
2021/12/25 15:23:28;;;;;;;;;;;9.60;98.60;;;;;;5026813;28;20392;-61
2021/12/25 15:26:16;;;;;;;;;;;9.60;98.60;;;;;;5005682;28;19921;-60
2021/12/25 15:28:42;;;;;;;;;;;9.60;98.50;;;;;;5007267;28;19913;-61
2021/12/25 15:31:15;;;;;;;;;;;9.60;98.40;;;;;;5008555;28;19928;-61
2021/12/25 15:33:44;;;;;;;;;;;9.60;98.40;;;;;;5008636;28;20037;-60
2021/12/25 15:36:13;;;;;;;;;;;9.60;98.30;;;;;;4994630;28;20541;-60
2021/12/25 15:38:38;;;;;;;;;;;9.60;98.20;;;;;;5007738;28;20253;-60
2021/12/25 15:41:06;;;;;;;;;;;9.60;98.20;;;;;;5009067;28;19966;-60
2021/12/25 15:43:31;;;;;;;;;;;9.60;98.30;;;;;;5001461;28;20284;-59
2021/12/25 15:46:01;;;;;;;;;;;9.60;98.40;;;;;;5005597;28;19920;-60
2021/12/25 15:48:27;;;;;;;;;;;9.60;98.30;;;;;;5010707;28;19920;-61
2021/12/25 15:50:52;;;;;;;;;;;9.70;98.20;;;;;;5021041;28;19917;-60